Aviation Digital Data Service (ADDS)

Output produced by METARs form (1052 UTC 18 June 2019)
found at http://www.aviationweather.gov/metar/data/
 
Forecast for: EBLG (BIERSET/LIEGE (C, BE)
Text: TAF EBLG 180515Z 1806/1912 14004KT CAVOK
Forecast period: 0600 UTC 18 June 2019 to 0800 UTC 19 June 2019
Forecast type: FROM: standard forecast or significant change
Winds: from the SE (140 degrees) at 5 MPH (4 knots; 2.1 m/s)
Visibility: 6 or more miles 10+ km)
Ceiling: unknown
Clouds: missing
Weather: NSW  (no significant weather)
Text: BECMG 1908/1910 19011KT
Forecast period: 0800 to 1200 UTC 19 June 2019
Forecast type: BECOMING: Conditions expected to become as follows by 1000 UTC 19 June 2019
Winds: from the S (190 degrees) at 13 MPH (11 knots; 5.7 m/s)
Visibility: 6 or more miles 10+ km)
Ceiling: unknown
Clouds: missing
Weather: NSW  (no significant weather)
Text: PROB40
Forecast period: 0500 to 1200 UTC 19 June 2019
Forecast type: TEMPORARY: The following changes expected for less than half the time period
Visibility: 2.49 miles (4.01 km)
Ceiling: unknown
Clouds: missing
Weather: SHRA RA  (rain showers, moderate rain)
Text: TEMPO 1905/1912 4000 SHRA RA
Forecast period: 0500 to 1200 UTC 19 June 2019
Forecast type: TEMPORARY: The following changes expected for less than half the time period
Visibility: missing
Ceiling: unknown
Clouds: missing
Weather: TSRA  (rain associated with thunderstorm(s))